createdAt,value
2018-03-15T00:00:59.097Z,0.00
2018-03-15T00:01:59.100Z,0.00
2018-03-15T00:02:59.018Z,0.00
2018-03-15T00:03:58.998Z,0.00
2018-03-15T00:04:58.927Z,0.00
2018-03-15T00:05:58.892Z,0.00
2018-03-15T00:06:58.858Z,0.00
2018-03-15T00:07:58.842Z,0.00
2018-03-15T00:08:58.781Z,0.00
2018-03-15T00:09:58.732Z,0.00
2018-03-15T00:10:58.715Z,0.00
2018-03-15T00:11:58.676Z,0.00
2018-03-15T00:12:58.639Z,0.00
2018-03-15T00:13:58.596Z,0.00
2018-03-15T00:14:58.576Z,0.00
2018-03-15T00:15:58.504Z,0.00
2018-03-15T00:16:58.501Z,0.00
2018-03-15T00:17:58.428Z,0.00
2018-03-15T00:18:58.379Z,0.00
2018-03-15T00:19:58.346Z,0.00
2018-03-15T00:20:58.301Z,0.00
2018-03-15T00:21:58.250Z,0.00
2018-03-15T00:22:58.212Z,0.00
2018-03-15T00:23:58.178Z,0.00
2018-03-15T00:24:58.157Z,0.00
2018-03-15T00:25:58.111Z,0.00
2018-03-15T00:26:58.087Z,0.00
2018-03-15T00:27:58.047Z,0.00
2018-03-15T00:28:57.977Z,0.00
2018-03-15T00:29:57.989Z,0.00
2018-03-15T00:30:57.896Z,0.00
2018-03-15T00:31:57.870Z,0.00
2018-03-15T00:32:57.851Z,0.00
2018-03-15T00:33:57.838Z,0.00
2018-03-15T00:34:57.769Z,0.00
2018-03-15T00:35:57.703Z,0.00
2018-03-15T00:36:57.703Z,0.00
2018-03-15T00:37:57.642Z,0.00
2018-03-15T00:38:57.621Z,0.00
2018-03-15T00:39:57.566Z,0.00
2018-03-15T00:40:57.558Z,0.00
2018-03-15T00:41:57.461Z,0.00
2018-03-15T00:42:57.463Z,0.00
2018-03-15T00:43:57.438Z,0.00
2018-03-15T00:44:57.368Z,0.00
2018-03-15T00:45:57.298Z,0.00
2018-03-15T00:46:57.278Z,0.00
2018-03-15T00:47:57.220Z,0.00
2018-03-15T00:48:57.178Z,0.00
2018-03-15T00:49:57.142Z,0.00
2018-03-15T00:50:57.135Z,0.00
2018-03-15T00:51:57.069Z,0.00
2018-03-15T00:52:57.019Z,0.00
2018-03-15T00:53:57.015Z,0.00
2018-03-15T00:54:56.939Z,0.00
2018-03-15T00:55:56.896Z,0.00
2018-03-15T00:56:56.858Z,0.00
2018-03-15T00:57:56.814Z,0.00
2018-03-15T00:58:56.785Z,0.00
2018-03-15T00:59:56.759Z,0.00
2018-03-15T01:00:56.701Z,0.00
2018-03-15T01:01:56.665Z,0.00
2018-03-15T01:02:56.614Z,0.00
2018-03-15T01:03:56.597Z,0.00
2018-03-15T01:04:56.554Z,0.00
2018-03-15T01:05:56.492Z,0.00
2018-03-15T01:06:56.492Z,0.00
2018-03-15T01:07:56.435Z,0.00
2018-03-15T01:08:56.379Z,0.00
2018-03-15T01:09:56.391Z,0.00
2018-03-15T01:10:56.311Z,0.00
2018-03-15T01:11:56.269Z,0.00
2018-03-15T01:12:56.265Z,0.00
2018-03-15T01:13:56.214Z,0.00
2018-03-15T01:14:56.178Z,0.00
2018-03-15T01:15:56.091Z,0.00
2018-03-15T01:16:56.058Z,0.00
2018-03-15T01:17:56.019Z,0.00
2018-03-15T01:18:55.989Z,0.00
2018-03-15T01:19:55.938Z,0.00
2018-03-15T01:20:55.900Z,0.00
2018-03-15T01:21:55.863Z,0.00
2018-03-15T01:22:55.820Z,0.00
2018-03-15T01:23:55.795Z,0.00
2018-03-15T01:24:55.753Z,0.00
2018-03-15T01:25:55.723Z,0.00
2018-03-15T01:26:55.691Z,0.00
2018-03-15T01:27:55.674Z,0.00
2018-03-15T01:28:55.626Z,0.00
2018-03-15T01:29:55.572Z,0.00
2018-03-15T01:30:55.508Z,0.00
2018-03-15T01:31:55.477Z,0.00
2018-03-15T01:32:55.419Z,0.00
2018-03-15T01:33:55.383Z,0.00
2018-03-15T01:34:55.356Z,0.00
2018-03-15T01:35:55.310Z,0.00
2018-03-15T01:36:55.287Z,0.00
2018-03-15T01:37:55.237Z,0.00
2018-03-15T01:38:55.208Z,0.00
2018-03-15T01:39:55.179Z,0.00
2018-03-15T01:40:55.094Z,0.00
2018-03-15T01:41:55.060Z,0.00
2018-03-15T01:42:55.037Z,0.00
2018-03-15T01:43:54.977Z,0.00
2018-03-15T01:44:54.963Z,0.00
2018-03-15T01:45:54.899Z,0.00
2018-03-15T01:46:54.864Z,0.00
2018-03-15T01:47:54.862Z,0.00
2018-03-15T01:48:54.780Z,0.00
2018-03-15T01:49:54.752Z,0.00
2018-03-15T01:50:54.704Z,0.00
2018-03-15T01:51:54.660Z,0.00
2018-03-15T01:52:54.626Z,0.00
2018-03-15T01:53:54.587Z,0.00
2018-03-15T01:54:54.540Z,0.00
2018-03-15T01:55:54.495Z,0.00
2018-03-15T01:56:54.470Z,0.00
2018-03-15T01:57:54.460Z,0.00
2018-03-15T01:58:54.376Z,0.00
2018-03-15T01:59:54.351Z,0.00
2018-03-15T02:00:54.302Z,0.00
2018-03-15T02:01:54.265Z,0.00
2018-03-15T02:02:54.231Z,0.00
2018-03-15T02:03:54.198Z,0.00
2018-03-15T02:04:54.148Z,0.00
2018-03-15T02:05:54.101Z,0.00
2018-03-15T02:06:54.109Z,0.00
2018-03-15T02:07:54.032Z,0.00
2018-03-15T02:08:54.015Z,0.00
2018-03-15T02:09:53.947Z,0.00
2018-03-15T02:10:53.954Z,0.00
2018-03-15T02:11:53.921Z,0.00
2018-03-15T02:12:53.840Z,0.00
2018-03-15T02:13:53.785Z,0.00
2018-03-15T02:14:53.747Z,0.00
2018-03-15T02:15:53.694Z,0.00
2018-03-15T02:16:53.687Z,0.00
2018-03-15T02:17:53.613Z,0.00
2018-03-15T02:18:53.604Z,0.00
2018-03-15T02:19:53.570Z,0.00
2018-03-15T02:20:53.498Z,0.00
2018-03-15T02:21:53.467Z,0.00
2018-03-15T02:22:53.419Z,0.00
2018-03-15T02:23:53.375Z,0.00
2018-03-15T02:24:53.349Z,0.00
2018-03-15T02:25:53.303Z,0.00
2018-03-15T02:26:53.297Z,0.00
2018-03-15T02:27:53.216Z,0.00
2018-03-15T02:28:53.210Z,0.00
2018-03-15T02:29:53.144Z,0.00
2018-03-15T02:30:53.096Z,0.00
2018-03-15T02:31:53.064Z,0.00
2018-03-15T02:32:53.022Z,0.00
2018-03-15T02:33:52.971Z,0.00
2018-03-15T02:34:52.951Z,0.00
2018-03-15T02:35:52.898Z,0.00
2018-03-15T02:36:53.972Z,0.00
2018-03-15T02:37:53.473Z,0.00
2018-03-15T02:38:53.472Z,0.00
2018-03-15T02:39:52.758Z,0.00
2018-03-15T02:40:52.692Z,0.00
2018-03-15T02:41:52.664Z,0.00
2018-03-15T02:42:52.614Z,0.00
2018-03-15T02:43:52.573Z,0.00
2018-03-15T02:44:52.543Z,0.00
2018-03-15T02:45:52.511Z,0.00
2018-03-15T02:46:52.448Z,0.00
2018-03-15T02:47:52.433Z,0.00
2018-03-15T02:48:52.390Z,0.00
2018-03-15T02:49:52.346Z,0.00
2018-03-15T02:50:52.299Z,0.00
2018-03-15T02:51:52.318Z,0.00
2018-03-15T02:52:52.204Z,0.00
2018-03-15T02:53:52.185Z,0.00
2018-03-15T02:54:52.122Z,0.00
2018-03-15T02:55:52.097Z,0.00
2018-03-15T02:56:52.048Z,0.00
2018-03-15T02:57:52.028Z,0.00
2018-03-15T02:58:51.987Z,0.00
2018-03-15T02:59:51.924Z,0.00
2018-03-15T03:00:51.880Z,0.00
2018-03-15T03:01:51.862Z,0.00
2018-03-15T03:02:51.822Z,0.00
2018-03-15T03:03:51.763Z,0.00
2018-03-15T03:04:51.737Z,0.00
2018-03-15T03:05:51.686Z,0.00
2018-03-15T03:06:51.656Z,0.00
2018-03-15T03:07:51.665Z,0.00
2018-03-15T03:08:51.563Z,0.00
2018-03-15T03:09:51.527Z,0.00
2018-03-15T03:10:51.531Z,0.00
2018-03-15T03:11:51.482Z,0.00
2018-03-15T03:12:51.412Z,0.00
2018-03-15T03:13:51.369Z,0.00
2018-03-15T03:14:51.326Z,0.00
2018-03-15T03:15:51.282Z,0.00
2018-03-15T03:16:51.252Z,0.00
2018-03-15T03:17:51.199Z,0.00
2018-03-15T03:18:51.216Z,0.00
2018-03-15T03:19:51.121Z,0.00
2018-03-15T03:20:51.094Z,0.00
2018-03-15T03:21:51.044Z,0.00
2018-03-15T03:22:51.025Z,0.00
2018-03-15T03:23:50.979Z,0.00
2018-03-15T03:24:50.922Z,0.00
2018-03-15T03:25:50.905Z,0.00
2018-03-15T03:26:50.841Z,0.00
2018-03-15T03:27:50.799Z,0.00
2018-03-15T03:28:50.755Z,0.00
2018-03-15T03:29:50.746Z,0.00
2018-03-15T03:30:50.718Z,0.00
2018-03-15T03:31:50.653Z,0.00
2018-03-15T03:32:50.602Z,0.00
2018-03-15T03:33:50.591Z,0.00
2018-03-15T03:34:50.533Z,0.00
2018-03-15T03:35:50.479Z,0.00
2018-03-15T03:36:50.455Z,0.00
2018-03-15T03:37:50.400Z,0.00
2018-03-15T03:38:50.374Z,0.00
2018-03-15T03:39:50.356Z,0.00
2018-03-15T03:40:50.298Z,0.00
2018-03-15T03:41:50.240Z,0.00
2018-03-15T03:42:50.207Z,0.00
2018-03-15T03:43:50.171Z,0.00
2018-03-15T03:44:50.141Z,0.00
2018-03-15T03:45:50.070Z,0.00
2018-03-15T03:46:50.036Z,0.00
2018-03-15T03:47:50.009Z,0.00
2018-03-15T03:48:49.983Z,0.00
2018-03-15T03:49:49.945Z,0.00
2018-03-15T03:50:49.941Z,0.00
2018-03-15T03:51:49.854Z,0.00
2018-03-15T03:52:49.800Z,0.00
2018-03-15T03:53:49.778Z,0.00
2018-03-15T03:54:49.769Z,0.00
2018-03-15T03:55:49.758Z,0.00
2018-03-15T03:56:49.645Z,0.00
2018-03-15T03:57:49.592Z,0.00
2018-03-15T03:58:49.547Z,0.00
2018-03-15T03:59:49.542Z,0.00
2018-03-15T04:00:49.503Z,0.00
2018-03-15T04:01:49.449Z,0.00
2018-03-15T04:02:49.402Z,0.00
2018-03-15T04:03:49.367Z,0.00
2018-03-15T04:04:49.310Z,0.00
2018-03-15T04:05:49.294Z,0.00
2018-03-15T04:06:49.272Z,0.00
2018-03-15T04:07:49.192Z,0.00
2018-03-15T04:08:49.144Z,0.00
2018-03-15T04:09:49.110Z,0.00
2018-03-15T04:10:49.075Z,0.00
2018-03-15T04:11:49.050Z,0.00
2018-03-15T04:12:49.009Z,0.00
2018-03-15T04:13:48.948Z,0.00
2018-03-15T04:14:48.914Z,0.00
2018-03-15T04:15:48.936Z,0.00
2018-03-15T04:16:48.827Z,0.00
2018-03-15T04:17:48.796Z,0.00
2018-03-15T04:18:48.796Z,0.00
2018-03-15T04:19:48.706Z,0.00
2018-03-15T04:20:48.666Z,0.00
2018-03-15T04:21:48.660Z,0.00
2018-03-15T04:22:48.589Z,0.00
2018-03-15T04:23:48.592Z,0.00
2018-03-15T04:24:48.540Z,0.00
2018-03-15T04:25:48.455Z,0.00
2018-03-15T04:26:48.445Z,0.00
2018-03-15T04:27:48.406Z,0.00
2018-03-15T04:28:48.373Z,0.00
2018-03-15T04:29:48.309Z,0.00
2018-03-15T04:30:48.283Z,0.00
2018-03-15T04:31:48.253Z,0.00
2018-03-15T04:32:48.178Z,0.00
2018-03-15T04:33:48.140Z,0.00
2018-03-15T04:34:48.092Z,0.00
2018-03-15T04:35:48.069Z,0.00
2018-03-15T04:36:48.041Z,0.00
2018-03-15T04:37:47.994Z,0.00
2018-03-15T04:38:47.929Z,0.00
2018-03-15T04:39:47.899Z,0.00
2018-03-15T04:40:47.876Z,0.00
2018-03-15T04:41:47.815Z,0.00
2018-03-15T04:42:47.805Z,0.00
2018-03-15T04:43:47.742Z,0.00
2018-03-15T04:44:47.704Z,0.00
2018-03-15T04:45:47.675Z,0.00
2018-03-15T04:46:47.639Z,0.00
2018-03-15T04:47:47.572Z,0.00
2018-03-15T04:48:47.543Z,0.00
2018-03-15T04:49:47.487Z,0.00
2018-03-15T04:50:47.450Z,0.00
2018-03-15T04:51:47.410Z,0.00
2018-03-15T04:52:47.367Z,0.00
2018-03-15T04:53:47.327Z,0.00
2018-03-15T04:54:47.311Z,0.00
2018-03-15T04:55:47.277Z,0.00
2018-03-15T04:56:47.221Z,0.00
2018-03-15T04:57:47.162Z,0.00
2018-03-15T04:58:47.150Z,0.00
2018-03-15T04:59:47.096Z,0.00
2018-03-15T05:00:47.054Z,0.00
2018-03-15T05:01:46.995Z,0.00
2018-03-15T05:02:46.976Z,0.00
2018-03-15T05:03:46.917Z,0.00
2018-03-15T05:04:46.904Z,0.00
2018-03-15T05:05:46.844Z,0.00
2018-03-15T05:06:46.813Z,0.00
2018-03-15T05:07:46.788Z,0.00
2018-03-15T05:08:46.728Z,0.00
2018-03-15T05:09:46.701Z,0.00
2018-03-15T05:10:46.645Z,0.00
2018-03-15T05:11:46.597Z,0.00
2018-03-15T05:12:46.556Z,0.00
2018-03-15T05:13:46.511Z,0.00
2018-03-15T05:14:46.477Z,0.00
2018-03-15T05:15:46.480Z,0.00
2018-03-15T05:16:46.393Z,0.00
2018-03-15T05:17:46.356Z,0.00
2018-03-15T05:18:46.338Z,0.00
2018-03-15T05:19:46.303Z,0.00
2018-03-15T05:20:46.238Z,0.00
2018-03-15T05:21:46.210Z,0.00
2018-03-15T05:22:46.162Z,0.00
2018-03-15T05:23:46.123Z,0.00
2018-03-15T05:24:46.122Z,0.00
2018-03-15T05:25:46.070Z,0.00
2018-03-15T05:26:46.026Z,0.00
2018-03-15T05:27:45.954Z,0.00
2018-03-15T05:28:45.903Z,0.00
2018-03-15T05:29:45.871Z,0.00
2018-03-15T05:30:45.869Z,0.00
2018-03-15T05:31:45.784Z,0.00
2018-03-15T05:32:45.757Z,0.00
2018-03-15T05:33:45.708Z,0.00
2018-03-15T05:34:45.667Z,0.00
2018-03-15T05:35:45.622Z,0.00
2018-03-15T05:36:45.584Z,0.00
2018-03-15T05:37:45.545Z,0.00
2018-03-15T05:38:45.503Z,0.00
2018-03-15T05:39:45.461Z,0.00
2018-03-15T05:40:45.421Z,0.00
2018-03-15T05:41:45.379Z,0.00
2018-03-15T05:42:45.359Z,5.63
2018-03-15T05:43:45.301Z,5.63
2018-03-15T05:44:45.259Z,5.63
2018-03-15T05:45:45.219Z,5.63
2018-03-15T05:46:45.179Z,5.63
2018-03-15T05:47:45.147Z,5.63
2018-03-15T05:48:45.099Z,5.63
2018-03-15T05:49:45.055Z,5.63
2018-03-15T05:50:45.018Z,5.63
2018-03-15T05:51:44.974Z,5.63
2018-03-15T05:52:44.936Z,11.25
2018-03-15T05:53:44.889Z,11.25
2018-03-15T05:54:44.854Z,11.25
2018-03-15T05:55:44.814Z,11.25
2018-03-15T05:56:44.774Z,11.25
2018-03-15T05:57:44.733Z,16.88
2018-03-15T05:58:44.691Z,16.88
2018-03-15T05:59:44.650Z,16.88
2018-03-15T06:00:44.616Z,22.50
2018-03-15T06:01:44.570Z,22.50
2018-03-15T06:02:44.531Z,22.50
2018-03-15T06:03:44.489Z,22.50
2018-03-15T06:04:44.450Z,28.13
2018-03-15T06:05:44.408Z,28.13
2018-03-15T06:06:44.370Z,28.13
2018-03-15T06:07:44.326Z,28.13
2018-03-15T06:08:44.287Z,33.75
2018-03-15T06:09:44.244Z,33.75
2018-03-15T06:10:44.202Z,33.75
2018-03-15T06:11:44.185Z,39.38
2018-03-15T06:12:44.125Z,39.38
2018-03-15T06:13:44.088Z,39.38
2018-03-15T06:14:44.046Z,39.38
2018-03-15T06:15:44.004Z,39.38
2018-03-15T06:16:43.966Z,39.38
2018-03-15T06:17:43.920Z,39.38
2018-03-15T06:18:43.883Z,45.00
2018-03-15T06:19:43.844Z,45.00
2018-03-15T06:20:43.803Z,45.00
2018-03-15T06:21:43.764Z,50.63
2018-03-15T06:22:43.726Z,50.63
2018-03-15T06:23:43.682Z,50.63
2018-03-15T06:24:43.640Z,50.63
2018-03-15T06:25:43.600Z,50.63
2018-03-15T06:26:43.563Z,56.25
2018-03-15T06:27:43.519Z,56.25
2018-03-15T06:28:43.481Z,56.25
2018-03-15T06:29:43.442Z,56.25
2018-03-15T06:30:43.396Z,56.25
2018-03-15T06:31:43.360Z,61.88
2018-03-15T06:32:43.961Z,67.50
2018-03-15T06:33:43.285Z,73.13
2018-03-15T06:34:43.243Z,78.75
2018-03-15T06:35:43.203Z,78.75
2018-03-15T06:36:43.160Z,67.50
2018-03-15T06:37:43.122Z,67.50
2018-03-15T06:38:43.080Z,67.50
2018-03-15T06:39:43.039Z,67.50
2018-03-15T06:40:43.002Z,67.50
2018-03-15T06:41:42.961Z,73.13
2018-03-15T06:42:42.925Z,73.13
2018-03-15T06:43:42.884Z,78.75
2018-03-15T06:44:42.842Z,84.38
2018-03-15T06:45:42.800Z,84.38
2018-03-15T06:46:42.761Z,84.38
2018-03-15T06:47:42.720Z,90.00
2018-03-15T06:48:42.681Z,90.00
2018-03-15T06:49:42.643Z,95.63
2018-03-15T06:50:42.604Z,101.25
2018-03-15T06:51:42.561Z,106.88
2018-03-15T06:52:42.526Z,112.50
2018-03-15T06:53:42.482Z,123.75
2018-03-15T06:54:42.444Z,129.38
2018-03-15T06:55:42.394Z,146.25
2018-03-15T06:56:42.362Z,163.13
2018-03-15T06:57:42.324Z,168.75
2018-03-15T06:58:42.281Z,174.38
2018-03-15T06:59:42.243Z,174.38
2018-03-15T07:00:42.203Z,185.63
2018-03-15T07:01:42.164Z,191.25
2018-03-15T07:02:42.125Z,196.88
2018-03-15T07:03:42.082Z,202.50
2018-03-15T07:04:42.042Z,202.50
2018-03-15T07:05:42.007Z,208.13
2018-03-15T07:06:41.970Z,219.38
2018-03-15T07:07:41.935Z,219.38
2018-03-15T07:08:41.890Z,225.00
2018-03-15T07:09:41.857Z,230.63
2018-03-15T07:10:41.814Z,241.88
2018-03-15T07:11:41.785Z,241.88
2018-03-15T07:12:41.736Z,247.50
2018-03-15T07:13:41.698Z,247.50
2018-03-15T07:14:41.660Z,253.13
2018-03-15T07:15:41.622Z,253.13
2018-03-15T07:16:41.583Z,258.75
2018-03-15T07:17:41.546Z,253.13
2018-03-15T07:18:41.511Z,253.13
2018-03-15T07:19:41.474Z,258.75
2018-03-15T07:20:41.435Z,247.50
2018-03-15T07:21:41.399Z,247.50
2018-03-15T07:22:41.363Z,253.13
2018-03-15T07:23:41.322Z,258.75
2018-03-15T07:24:41.289Z,258.75
2018-03-15T07:25:41.254Z,258.75
2018-03-15T07:26:41.215Z,253.13
2018-03-15T07:27:41.177Z,219.38
2018-03-15T07:28:41.141Z,208.13
2018-03-15T07:29:41.107Z,225.00
2018-03-15T07:30:41.071Z,236.25
2018-03-15T07:31:41.032Z,236.25
2018-03-15T07:32:40.998Z,253.13
2018-03-15T07:33:40.960Z,258.75
2018-03-15T07:34:40.924Z,258.75
2018-03-15T07:35:40.885Z,270.00
2018-03-15T07:36:40.849Z,270.00
2018-03-15T07:37:40.814Z,270.00
2018-03-15T07:38:40.777Z,270.00
2018-03-15T07:39:40.743Z,258.75
2018-03-15T07:40:40.739Z,270.00
2018-03-15T07:41:40.667Z,264.38
2018-03-15T07:42:40.631Z,264.38
2018-03-15T07:43:40.594Z,258.75
2018-03-15T07:44:40.560Z,264.38
2018-03-15T07:45:40.524Z,270.00
2018-03-15T07:46:40.485Z,270.00
2018-03-15T07:47:40.450Z,298.13
2018-03-15T07:48:40.413Z,286.88
2018-03-15T07:49:40.452Z,315.00
2018-03-15T07:50:40.342Z,309.38
2018-03-15T07:51:40.879Z,320.63
2018-03-15T07:52:40.268Z,303.75
2018-03-15T07:53:40.231Z,320.63
2018-03-15T07:54:40.195Z,320.63
2018-03-15T07:55:40.157Z,320.63
2018-03-15T07:56:40.123Z,326.25
2018-03-15T07:57:40.088Z,320.63
2018-03-15T07:58:40.048Z,320.63
2018-03-15T07:59:40.012Z,315.00
2018-03-15T08:00:39.979Z,320.63
2018-03-15T08:01:39.941Z,309.38
2018-03-15T08:02:39.902Z,315.00
2018-03-15T08:03:39.865Z,320.63
2018-03-15T08:04:39.831Z,320.63
2018-03-15T08:05:39.796Z,371.25
2018-03-15T08:06:39.760Z,320.63
2018-03-15T08:07:39.721Z,331.88
2018-03-15T08:08:39.687Z,348.75
2018-03-15T08:09:39.652Z,331.88
2018-03-15T08:10:39.622Z,354.38
2018-03-15T08:11:39.576Z,382.50
2018-03-15T08:12:39.542Z,483.75
2018-03-15T08:13:39.505Z,506.25
2018-03-15T08:14:39.468Z,534.38
2018-03-15T08:15:39.435Z,483.75
2018-03-15T08:16:39.396Z,438.75
2018-03-15T08:17:39.361Z,444.38
2018-03-15T08:18:39.323Z,438.75
2018-03-15T08:19:39.286Z,450.00
2018-03-15T08:20:39.275Z,466.88
2018-03-15T08:21:39.214Z,466.88
2018-03-15T08:22:39.182Z,478.13
2018-03-15T08:23:39.145Z,495.00
2018-03-15T08:24:39.110Z,495.00
2018-03-15T08:25:39.077Z,511.88
2018-03-15T08:26:39.041Z,489.38
2018-03-15T08:27:39.003Z,568.13
2018-03-15T08:28:38.972Z,540.00
2018-03-15T08:29:38.935Z,579.38
2018-03-15T08:30:38.905Z,534.38
2018-03-15T08:31:38.862Z,613.13
2018-03-15T08:32:38.831Z,669.38
2018-03-15T08:33:38.797Z,753.75
2018-03-15T08:34:38.764Z,652.50
2018-03-15T08:35:38.729Z,697.50
2018-03-15T08:36:38.693Z,680.63
2018-03-15T08:37:38.660Z,720.00
2018-03-15T08:38:38.627Z,776.25
2018-03-15T08:39:38.595Z,714.38
2018-03-15T08:40:38.581Z,680.63
2018-03-15T08:41:38.524Z,731.25
2018-03-15T08:42:38.498Z,714.38
2018-03-15T08:43:38.457Z,759.38
2018-03-15T08:44:38.424Z,742.50
2018-03-15T08:45:38.391Z,725.63
2018-03-15T08:46:38.370Z,720.00
2018-03-15T08:47:38.321Z,680.63
2018-03-15T08:48:38.288Z,652.50
2018-03-15T08:49:38.253Z,680.63
2018-03-15T08:50:38.222Z,691.88
2018-03-15T08:51:38.189Z,691.88
2018-03-15T08:52:38.151Z,753.75
2018-03-15T08:53:38.132Z,748.13
2018-03-15T08:54:38.084Z,725.63
2018-03-15T08:55:38.050Z,725.63
2018-03-15T08:56:38.032Z,720.00
2018-03-15T08:57:38.020Z,776.25
2018-03-15T08:58:37.952Z,770.63
2018-03-15T08:59:37.914Z,770.63
2018-03-15T09:00:37.883Z,849.38
2018-03-15T09:01:37.854Z,798.75
2018-03-15T09:02:37.817Z,877.50
2018-03-15T09:03:37.782Z,894.38
2018-03-15T09:04:38.291Z,928.13
2018-03-15T09:05:37.713Z,1023.75
2018-03-15T09:06:37.682Z,990.00
2018-03-15T09:07:37.647Z,973.13
2018-03-15T09:08:37.612Z,1012.50
2018-03-15T09:09:37.580Z,956.25
2018-03-15T09:10:37.547Z,1012.50
2018-03-15T09:11:37.535Z,1051.88
2018-03-15T09:12:37.481Z,1074.38
2018-03-15T09:13:37.447Z,1080.00
2018-03-15T09:14:37.413Z,1119.38
2018-03-15T09:15:37.380Z,1119.38
2018-03-15T09:16:37.347Z,1220.63
2018-03-15T09:17:37.316Z,1198.13
2018-03-15T09:18:37.280Z,1136.25
2018-03-15T09:19:37.246Z,1085.63
2018-03-15T09:20:37.215Z,1181.25
2018-03-15T09:21:37.186Z,1147.50
2018-03-15T09:22:37.152Z,1209.38
2018-03-15T09:23:37.140Z,1164.38
2018-03-15T09:24:37.087Z,1260.00
2018-03-15T09:25:37.057Z,1372.50
2018-03-15T09:26:37.025Z,1372.50
2018-03-15T09:27:36.990Z,1400.63
2018-03-15T09:28:36.957Z,1265.63
2018-03-15T09:29:36.929Z,1147.50
2018-03-15T09:30:36.894Z,1085.63
2018-03-15T09:31:36.861Z,1220.63
2018-03-15T09:32:36.831Z,1265.63
2018-03-15T09:33:36.799Z,1181.25
2018-03-15T09:34:36.830Z,1102.50
2018-03-15T09:35:36.732Z,911.25
2018-03-15T09:36:36.700Z,939.38
2018-03-15T09:37:36.671Z,894.38
2018-03-15T09:38:36.640Z,888.75
2018-03-15T09:39:36.604Z,945.00
2018-03-15T09:40:36.612Z,1209.38
2018-03-15T09:41:36.540Z,1203.75
2018-03-15T09:42:36.508Z,1282.50
2018-03-15T09:43:36.474Z,1271.25
2018-03-15T09:44:36.444Z,1271.25
2018-03-15T09:45:36.410Z,1462.50
2018-03-15T09:46:36.377Z,1288.13
2018-03-15T09:47:36.344Z,1181.25
2018-03-15T09:48:36.313Z,1203.75
2018-03-15T09:49:36.280Z,1333.13
2018-03-15T09:50:36.250Z,1310.63
2018-03-15T09:51:36.216Z,1310.63
2018-03-15T09:52:36.186Z,1299.38
2018-03-15T09:53:36.156Z,1237.50
2018-03-15T09:54:36.122Z,1282.50
2018-03-15T09:55:36.089Z,1271.25
2018-03-15T09:56:36.056Z,1158.75
2018-03-15T09:57:36.027Z,1181.25
2018-03-15T09:58:35.993Z,1141.88
2018-03-15T09:59:35.952Z,1175.63
2018-03-15T10:00:35.928Z,1125.00
2018-03-15T10:01:35.896Z,1164.38
2018-03-15T10:02:35.864Z,1271.25
2018-03-15T10:03:35.832Z,1293.75
2018-03-15T10:04:35.801Z,1276.88
2018-03-15T10:05:35.768Z,1282.50
2018-03-15T10:06:35.740Z,1276.88
2018-03-15T10:07:35.702Z,1305.00
2018-03-15T10:08:35.676Z,1344.38
2018-03-15T10:09:35.640Z,1035.00
2018-03-15T10:10:35.612Z,1136.25
2018-03-15T10:11:35.576Z,1035.00
2018-03-15T10:12:35.545Z,1046.25
2018-03-15T10:13:35.527Z,1046.25
2018-03-15T10:14:35.482Z,1006.88
2018-03-15T10:15:35.447Z,1040.63
2018-03-15T10:16:35.415Z,1057.50
2018-03-15T10:17:35.386Z,1035.00
2018-03-15T10:18:35.355Z,1040.63
2018-03-15T10:19:35.323Z,1108.13
2018-03-15T10:20:35.289Z,1085.63
2018-03-15T10:21:35.260Z,1147.50
2018-03-15T10:22:35.230Z,1141.88
2018-03-15T10:23:35.194Z,1125.00
2018-03-15T10:24:35.162Z,1181.25
2018-03-15T10:25:35.134Z,1175.63
2018-03-15T10:26:35.098Z,1147.50
2018-03-15T10:27:35.067Z,1170.00
2018-03-15T10:28:35.035Z,1113.75
2018-03-15T10:29:35.002Z,1158.75
2018-03-15T10:30:34.972Z,1186.88
2018-03-15T10:31:34.940Z,1248.75
2018-03-15T10:32:34.907Z,1243.13
2018-03-15T10:33:34.876Z,1175.63
2018-03-15T10:34:34.844Z,1091.25
2018-03-15T10:35:34.812Z,1096.88
2018-03-15T10:36:34.780Z,1102.50
2018-03-15T10:37:34.750Z,973.13
2018-03-15T10:38:34.723Z,776.25
2018-03-15T10:39:34.686Z,860.63
2018-03-15T10:40:34.655Z,579.38
2018-03-15T10:41:34.622Z,540.00
2018-03-15T10:42:34.592Z,534.38
2018-03-15T10:43:34.560Z,573.75
2018-03-15T10:44:34.528Z,534.38
2018-03-15T10:45:34.496Z,523.13
2018-03-15T10:46:34.469Z,579.38
2018-03-15T10:47:34.434Z,585.00
2018-03-15T10:48:34.398Z,534.38
2018-03-15T10:49:34.365Z,495.00
2018-03-15T10:50:34.339Z,511.88
2018-03-15T10:51:34.309Z,489.38
2018-03-15T10:52:34.264Z,478.13
2018-03-15T10:53:34.236Z,466.88
2018-03-15T10:54:34.201Z,489.38
2018-03-15T10:55:34.168Z,500.63
2018-03-15T10:56:34.135Z,495.00
2018-03-15T10:57:34.100Z,495.00
2018-03-15T10:58:34.072Z,495.00
2018-03-15T10:59:34.034Z,495.00
2018-03-15T11:00:34.005Z,506.25
2018-03-15T11:01:33.974Z,500.63
2018-03-15T11:02:33.937Z,523.13
2018-03-15T11:03:33.906Z,511.88
2018-03-15T11:04:33.873Z,506.25
2018-03-15T11:05:33.872Z,511.88
2018-03-15T11:06:33.803Z,506.25
2018-03-15T11:07:33.769Z,511.88
2018-03-15T11:08:33.735Z,517.50
2018-03-15T11:09:33.706Z,511.88
2018-03-15T11:10:33.669Z,500.63
2018-03-15T11:11:33.636Z,511.88
2018-03-15T11:12:33.603Z,511.88
2018-03-15T11:13:33.627Z,511.88
2018-03-15T11:14:33.537Z,506.25
2018-03-15T11:15:33.506Z,506.25
2018-03-15T11:16:33.472Z,511.88
2018-03-15T11:17:33.436Z,511.88
2018-03-15T11:18:33.402Z,523.13
2018-03-15T11:19:33.370Z,528.75
2018-03-15T11:20:33.338Z,517.50
2018-03-15T11:21:33.304Z,500.63
2018-03-15T11:22:33.271Z,483.75
2018-03-15T11:23:33.236Z,483.75
2018-03-15T11:24:33.204Z,466.88
2018-03-15T11:25:33.171Z,461.25
2018-03-15T11:26:33.139Z,461.25
2018-03-15T11:27:33.105Z,438.75
2018-03-15T11:28:33.090Z,466.88
2018-03-15T11:29:33.039Z,433.13
2018-03-15T11:30:33.008Z,427.50
2018-03-15T11:31:32.977Z,405.00
2018-03-15T11:32:32.939Z,399.38
2018-03-15T11:33:32.906Z,376.88
2018-03-15T11:34:32.872Z,365.63
2018-03-15T11:35:32.841Z,365.63
2018-03-15T11:36:32.803Z,354.38
2018-03-15T11:37:32.771Z,354.38
2018-03-15T11:38:32.743Z,343.13
2018-03-15T11:39:32.705Z,343.13
2018-03-15T11:40:32.667Z,360.00
2018-03-15T11:41:32.635Z,326.25
2018-03-15T11:42:32.600Z,331.88
2018-03-15T11:43:32.574Z,315.00
2018-03-15T11:44:32.541Z,309.38
2018-03-15T11:45:32.498Z,303.75
2018-03-15T11:46:32.466Z,292.50
2018-03-15T11:47:32.429Z,292.50
2018-03-15T11:48:32.674Z,275.63
2018-03-15T11:49:32.360Z,270.00
2018-03-15T11:50:32.329Z,270.00
2018-03-15T11:51:32.293Z,258.75
2018-03-15T11:52:32.257Z,258.75
2018-03-15T11:53:32.226Z,258.75
2018-03-15T11:54:32.190Z,247.50
2018-03-15T11:55:32.155Z,247.50
2018-03-15T11:56:32.119Z,241.88
2018-03-15T11:57:32.087Z,236.25
2018-03-15T11:58:32.053Z,225.00
2018-03-15T11:59:32.016Z,219.38
2018-03-15T12:00:31.980Z,225.00
2018-03-15T12:01:31.951Z,219.38
2018-03-15T12:02:31.909Z,213.75
2018-03-15T12:03:31.876Z,208.13
2018-03-15T12:04:31.841Z,202.50
2018-03-15T12:05:31.809Z,196.88
2018-03-15T12:06:31.770Z,196.88
2018-03-15T12:07:31.739Z,191.25
2018-03-15T12:08:31.701Z,191.25
2018-03-15T12:09:31.673Z,185.63
2018-03-15T12:10:31.631Z,191.25
2018-03-15T12:11:31.595Z,185.63
2018-03-15T12:12:31.561Z,185.63
2018-03-15T12:13:31.526Z,185.63
2018-03-15T12:14:31.504Z,185.63
2018-03-15T12:15:31.456Z,185.63
2018-03-15T12:16:31.419Z,185.63
2018-03-15T12:17:31.386Z,191.25
2018-03-15T12:18:31.349Z,191.25
2018-03-15T12:19:31.313Z,191.25
2018-03-15T12:20:31.279Z,191.25
2018-03-15T12:21:31.245Z,185.63
2018-03-15T12:22:31.207Z,191.25
2018-03-15T12:23:31.171Z,185.63
2018-03-15T12:24:31.135Z,191.25
2018-03-15T12:25:31.101Z,185.63
2018-03-15T12:26:31.065Z,185.63
2018-03-15T12:27:31.030Z,191.25
2018-03-15T12:28:30.997Z,185.63
2018-03-15T12:29:30.960Z,185.63
2018-03-15T12:30:30.925Z,180.00
2018-03-15T12:31:30.886Z,185.63
2018-03-15T12:32:30.853Z,185.63
2018-03-15T12:33:30.820Z,180.00
2018-03-15T12:34:30.781Z,185.63
2018-03-15T12:35:30.747Z,185.63
2018-03-15T12:36:30.713Z,185.63
2018-03-15T12:37:30.675Z,185.63
2018-03-15T12:38:30.647Z,185.63
2018-03-15T12:39:30.604Z,185.63
2018-03-15T12:40:30.569Z,185.63
2018-03-15T12:41:30.536Z,185.63
2018-03-15T12:42:30.549Z,191.25
2018-03-15T12:43:30.464Z,185.63
2018-03-15T12:44:30.427Z,185.63
2018-03-15T12:45:30.391Z,185.63
2018-03-15T12:46:30.357Z,180.00
2018-03-15T12:47:30.321Z,174.38
2018-03-15T12:48:30.286Z,174.38
2018-03-15T12:49:30.251Z,174.38